Time;durP1;ratioP1;P1;durP2;ratioP2;P2;SDS_P1;SDS_P2;PMS_P1;PMS_P2;Temp;Humidity;BMP_temperature;BMP_pressure;BME280_temperature;BME280_humidity;BME280_pressure;Samples;Min_cycle;Max_cycle;Signal;HPM_P1;HPM_P2
2022/01/13 00:01:01;;;;;;;26.23;12.95;;;6.20;79.60;;;;;;4842845;29;20048;-77
2022/01/13 00:03:27;;;;;;;26.98;13.30;;;6.20;79.60;;;;;;4861476;29;20063;-76
2022/01/13 00:05:52;;;;;;;23.33;12.77;;;6.20;79.60;;;;;;4857364;29;20038;-76
2022/01/13 00:08:18;;;;;;;28.60;13.27;;;6.10;79.50;;;;;;4837467;29;20041;-77
2022/01/13 00:10:44;;;;;;;24.15;13.10;;;6.20;79.60;;;;;;4845391;29;20093;-77
2022/01/13 00:13:13;;;;;;;30.77;13.32;;;6.20;79.60;;;;;;4861043;29;20042;-77
2022/01/13 00:15:51;;;;;;;22.58;12.60;;;6.20;79.60;;;;;;4835615;29;20101;-76
2022/01/13 00:18:39;;;;;;;26.13;13.15;;;6.20;79.50;;;;;;4846916;29;20491;-77
2022/01/13 00:21:32;;;;;;;26.90;12.73;;;6.10;79.50;;;;;;4860967;29;20227;-77
2022/01/13 00:24:01;;;;;;;32.22;13.13;;;6.20;79.50;;;;;;4860924;29;20053;-76
2022/01/13 00:26:28;;;;;;;31.85;13.40;;;6.10;79.50;;;;;;4859677;29;20046;-77
2022/01/13 00:28:55;;;;;;;21.10;11.65;;;6.10;79.40;;;;;;4860536;29;20042;-76
2022/01/13 00:31:27;;;;;;;26.90;13.75;;;6.10;79.40;;;;;;4843075;29;20042;-76
2022/01/13 00:33:57;;;;;;;25.02;13.45;;;6.10;79.50;;;;;;4861146;29;20061;-77
2022/01/13 00:36:25;;;;;;;24.70;13.15;;;6.10;79.50;;;;;;4844406;29;20498;-76
2022/01/13 00:38:52;;;;;;;25.95;12.38;;;6.10;79.60;;;;;;4856918;29;20054;-77
2022/01/13 00:41:19;;;;;;;23.73;12.45;;;6.10;79.60;;;;;;4856556;29;20086;-77
2022/01/13 00:43:47;;;;;;;22.13;12.07;;;6.10;79.60;;;;;;4844256;29;20045;-76
2022/01/13 00:46:20;;;;;;;23.67;12.68;;;6.10;79.60;;;;;;4860870;29;20401;-77
2022/01/13 00:48:46;;;;;;;24.70;12.93;;;6.10;79.60;;;;;;4860764;29;20076;-77
2022/01/13 00:51:12;;;;;;;24.80;13.25;;;6.10;79.60;;;;;;4857126;29;20057;-76
2022/01/13 00:53:37;;;;;;;23.48;12.98;;;6.10;80.00;;;;;;4861106;29;20148;-76
2022/01/13 00:56:03;;;;;;;22.33;11.60;;;6.10;79.60;;;;;;4860643;29;20049;-76
2022/01/13 00:58:31;;;;;;;22.42;11.25;;;6.10;79.60;;;;;;4843699;29;20037;-76
2022/01/13 01:00:59;;;;;;;19.63;10.85;;;6.10;79.60;;;;;;4844013;29;20060;-77
2022/01/13 01:03:25;;;;;;;20.73;10.68;;;6.10;79.50;;;;;;4843765;29;20404;-76
2022/01/13 01:05:51;;;;;;;19.52;10.75;;;6.10;79.50;;;;;;4839728;29;20144;-76
2022/01/13 01:08:17;;;;;;;20.30;10.73;;;6.10;79.60;;;;;;4836159;29;20136;-76
2022/01/13 01:10:47;;;;;;;21.02;10.88;;;6.10;79.60;;;;;;4868250;29;20446;-77
2022/01/13 01:13:16;;;;;;;26.70;10.52;;;6.10;79.60;;;;;;4856515;29;20050;-76
2022/01/13 01:15:47;;;;;;;18.83;10.68;;;6.10;79.60;;;;;;4833586;29;20054;-76
2022/01/13 01:18:47;;;;;;;23.65;10.63;;;6.10;79.60;;;;;;4853138;29;20129;-76
2022/01/13 01:29:07;;;;;;;22.08;10.95;;;6.10;79.60;;;;;;4861176;29;20132;-76
2022/01/13 01:31:35;;;;;;;23.25;11.65;;;6.10;79.70;;;;;;4845568;29;20068;-76
2022/01/13 01:36:32;;;;;;;19.88;9.82;;;6.10;79.70;;;;;;4861469;29;20560;-76
2022/01/13 01:38:59;;;;;;;23.80;10.80;;;6.10;79.70;;;;;;4845769;29;20145;-76
2022/01/13 01:41:25;;;;;;;22.35;10.07;;;6.10;79.70;;;;;;4845305;29;20533;-76
2022/01/13 01:43:53;;;;;;;27.15;10.38;;;6.10;79.70;;;;;;4844897;29;20109;-76
2022/01/13 01:46:19;;;;;;;19.70;10.10;;;6.10;79.70;;;;;;4861285;29;20053;-76
2022/01/13 01:48:44;;;;;;;27.08;11.00;;;6.10;79.70;;;;;;4860839;29;20403;-76
2022/01/13 01:51:10;;;;;;;18.38;9.98;;;6.10;79.70;;;;;;4845543;29;20552;-76
2022/01/13 01:53:35;;;;;;;17.48;9.73;;;6.00;79.60;;;;;;4861136;29;20141;-76
2022/01/13 01:56:02;;;;;;;23.33;10.25;;;6.10;79.70;;;;;;4845653;29;20583;-76
2022/01/13 01:58:28;;;;;;;19.20;10.30;;;6.10;79.80;;;;;;4860702;29;20577;-76
2022/01/13 02:00:55;;;;;;;18.10;9.52;;;6.10;79.80;;;;;;4860414;29;20067;-76
2022/01/13 02:03:22;;;;;;;28.45;11.30;;;6.00;79.70;;;;;;4860534;29;20446;-76
2022/01/13 02:05:48;;;;;;;21.45;10.02;;;6.10;79.80;;;;;;4863106;29;20170;-76
2022/01/13 02:08:14;;;;;;;28.98;12.07;;;6.10;79.80;;;;;;4862501;29;20042;-76
2022/01/13 02:10:40;;;;;;;18.00;9.40;;;6.10;79.90;;;;;;4862132;29;20103;-76
2022/01/13 02:13:10;;;;;;;26.85;11.25;;;6.10;79.80;;;;;;4862994;29;20057;-77
2022/01/13 02:15:48;;;;;;;25.40;10.80;;;6.00;79.80;;;;;;4858346;29;20140;-76
2022/01/13 02:18:15;;;;;;;23.48;10.20;;;6.00;79.80;;;;;;4861324;29;20049;-76
2022/01/13 02:20:51;;;;;;;25.20;11.75;;;6.00;79.80;;;;;;4845146;29;20109;-76
2022/01/13 02:23:33;;;;;;;19.98;10.63;;;6.00;79.90;;;;;;4845336;29;20049;-76
2022/01/13 02:25:59;;;;;;;26.35;10.23;;;6.10;80.00;;;;;;4853220;29;20057;-76
2022/01/13 02:28:25;;;;;;;18.70;10.30;;;6.00;79.90;;;;;;4832169;29;20054;-77
2022/01/13 02:30:51;;;;;;;23.75;10.50;;;6.10;80.00;;;;;;4845236;29;20045;-76
2022/01/13 02:33:17;;;;;;;20.73;9.70;;;6.10;80.00;;;;;;4836148;29;20101;-76
2022/01/13 02:35:42;;;;;;;22.75;10.75;;;6.10;80.00;;;;;;4857273;29;20046;-76
2022/01/13 02:38:12;;;;;;;27.85;10.90;;;6.10;80.00;;;;;;4876624;29;20511;-76
2022/01/13 02:40:39;;;;;;;22.10;10.38;;;6.10;80.10;;;;;;4843487;29;20053;-75
2022/01/13 02:43:05;;;;;;;26.00;10.68;;;6.10;80.00;;;;;;4862702;29;20092;-76
2022/01/13 02:45:37;;;;;;;19.05;10.35;;;6.10;80.00;;;;;;4849409;29;20081;-76
2022/01/13 02:50:40;;;;;;;25.88;10.90;;;6.10;80.00;;;;;;4854142;29;20056;-76
2022/01/13 02:53:08;;;;;;;19.70;9.80;;;6.00;80.00;;;;;;4844522;29;20050;-76
2022/01/13 02:55:34;;;;;;;20.02;8.90;;;6.10;80.00;;;;;;4872340;29;20116;-76
2022/01/13 02:57:59;;;;;;;19.67;9.93;;;6.10;80.00;;;;;;4856567;29;20128;-76
2022/01/13 03:00:25;;;;;;;26.40;10.80;;;6.10;80.00;;;;;;4861540;29;20106;-76
2022/01/13 03:02:51;;;;;;;19.60;9.75;;;6.10;80.00;;;;;;4845497;29;20041;-76
2022/01/13 03:05:17;;;;;;;28.33;10.88;;;6.10;80.00;;;;;;4861613;29;20052;-76
2022/01/13 03:07:43;;;;;;;22.58;10.68;;;6.10;79.90;;;;;;4860714;29;20049;-76
2022/01/13 03:10:10;;;;;;;20.92;9.98;;;6.10;79.90;;;;;;4844499;29;20526;-76
2022/01/13 03:12:39;;;;;;;17.85;9.23;;;6.10;80.00;;;;;;4860970;29;20441;-76
2022/01/13 03:15:05;;;;;;;20.77;10.23;;;6.00;79.90;;;;;;4859226;29;20056;-75
2022/01/13 03:17:31;;;;;;;21.95;10.57;;;6.10;80.00;;;;;;4861439;29;20053;-75
2022/01/13 03:19:57;;;;;;;23.38;10.13;;;6.10;80.00;;;;;;4848614;29;20049;-76
2022/01/13 03:22:22;;;;;;;22.30;9.93;;;6.10;80.00;;;;;;4846815;29;20096;-76
2022/01/13 03:24:48;;;;;;;21.33;10.55;;;6.10;80.00;;;;;;4860532;29;20057;-76
2022/01/13 03:27:19;;;;;;;21.67;10.65;;;6.10;80.00;;;;;;4856410;29;20048;-76
2022/01/13 03:29:46;;;;;;;26.77;10.82;;;6.10;80.00;;;;;;4843854;29;20058;-76
2022/01/13 03:32:12;;;;;;;26.13;10.38;;;6.10;80.10;;;;;;4850421;29;20042;-75
2022/01/13 03:34:38;;;;;;;19.77;9.63;;;6.10;80.10;;;;;;4875462;29;20064;-76
2022/01/13 03:37:04;;;;;;;21.15;10.65;;;6.10;80.10;;;;;;4861331;29;20162;-76
2022/01/13 03:39:30;;;;;;;21.73;9.57;;;6.10;80.10;;;;;;4841207;29;20128;-76
2022/01/13 03:41:56;;;;;;;19.85;9.45;;;6.10;80.20;;;;;;4861963;29;20108;-76
2022/01/13 03:44:27;;;;;;;22.83;10.02;;;6.10;80.60;;;;;;4843976;29;20041;-76
2022/01/13 03:46:55;;;;;;;22.40;11.23;;;6.10;80.20;;;;;;4861211;29;20056;-76
2022/01/13 03:49:20;;;;;;;26.42;9.88;;;6.10;80.20;;;;;;4855538;29;20052;-75
2022/01/13 03:51:58;;;;;;;19.98;11.38;;;6.00;80.20;;;;;;4875267;29;20482;-75
2022/01/13 03:54:35;;;;;;;25.17;10.75;;;6.10;80.30;;;;;;4843207;29;20042;-75
2022/01/13 03:57:31;;;;;;;26.40;10.23;;;6.10;80.30;;;;;;4851378;29;20054;-75
2022/01/13 04:00:40;;;;;;;26.50;10.40;;;6.10;80.30;;;;;;4857714;29;20049;-76
2022/01/13 04:03:06;;;;;;;20.85;10.60;;;6.10;80.30;;;;;;4859508;29;20049;-75
2022/01/13 04:05:32;;;;;;;20.17;9.73;;;6.10;80.30;;;;;;4861206;29;20050;-75
2022/01/13 04:07:57;;;;;;;27.65;10.25;;;6.10;80.30;;;;;;4851667;29;20098;-75
2022/01/13 04:10:52;;;;;;;26.08;10.68;;;6.10;80.30;;;;;;4844070;29;20092;-75
2022/01/13 04:13:44;;;;;;;23.20;10.40;;;6.10;80.40;;;;;;4843198;29;20049;-76
2022/01/13 04:16:10;;;;;;;20.85;10.77;;;6.10;80.40;;;;;;4860657;29;20093;-75
2022/01/13 04:18:35;;;;;;;20.27;10.35;;;6.10;80.40;;;;;;4860376;29;20061;-75
2022/01/13 04:21:01;;;;;;;25.20;9.63;;;6.10;80.40;;;;;;4860437;29;20049;-75
2022/01/13 04:23:27;;;;;;;21.60;10.20;;;6.10;80.40;;;;;;4859469;29;20056;-76
2022/01/13 04:25:53;;;;;;;21.83;10.40;;;6.10;80.40;;;;;;4844161;29;20045;-75
2022/01/13 04:28:25;;;;;;;24.83;10.52;;;6.10;80.40;;;;;;4860734;29;20128;-75
2022/01/13 04:30:53;;;;;;;24.20;10.43;;;6.10;80.40;;;;;;4860108;29;20052;-75
2022/01/13 04:33:19;;;;;;;20.23;9.63;;;6.10;80.40;;;;;;4858304;29;20069;-75
2022/01/13 04:35:46;;;;;;;20.50;10.27;;;6.10;80.40;;;;;;4860519;29;20077;-75
2022/01/13 04:38:11;;;;;;;21.45;10.68;;;6.20;80.40;;;;;;4855151;29;20045;-75
2022/01/13 04:40:44;;;;;;;23.83;10.57;;;6.20;80.40;;;;;;4861983;29;20049;-75
2022/01/13 04:43:11;;;;;;;24.98;10.80;;;6.20;80.30;;;;;;4877189;29;20132;-75
2022/01/13 04:45:36;;;;;;;22.80;10.90;;;6.20;80.30;;;;;;4846425;29;20102;-75
2022/01/13 04:48:02;;;;;;;22.38;10.07;;;6.10;80.20;;;;;;4863643;29;20057;-75
2022/01/13 04:50:28;;;;;;;23.77;10.15;;;6.10;80.20;;;;;;4864171;29;20049;-75
2022/01/13 04:52:54;;;;;;;20.20;10.25;;;6.10;80.20;;;;;;4845753;29;20064;-75
2022/01/13 04:55:25;;;;;;;26.63;11.68;;;6.10;80.20;;;;;;4863982;29;20057;-75
2022/01/13 04:57:52;;;;;;;20.88;10.63;;;6.10;80.20;;;;;;4862493;29;20049;-75
2022/01/13 05:00:18;;;;;;;25.60;10.27;;;6.10;80.20;;;;;;4846227;29;20056;-75
2022/01/13 05:02:44;;;;;;;27.23;11.20;;;6.10;80.20;;;;;;4864431;29;20541;-75
2022/01/13 05:05:10;;;;;;;30.65;11.48;;;6.10;80.20;;;;;;4855925;29;20049;-75
2022/01/13 05:07:36;;;;;;;29.23;10.40;;;6.10;80.20;;;;;;4861547;29;20150;-75
2022/01/13 05:10:02;;;;;;;26.08;10.93;;;6.10;80.20;;;;;;4849262;29;20120;-75
2022/01/13 05:12:34;;;;;;;25.27;11.18;;;6.10;80.20;;;;;;4863548;29;20053;-76
2022/01/13 05:15:03;;;;;;;23.42;10.68;;;6.10;80.20;;;;;;4863601;29;20057;-75
2022/01/13 05:20:13;;;;;;;27.75;10.90;;;6.10;80.30;;;;;;4863360;29;20057;-75
2022/01/13 05:22:39;;;;;;;22.73;10.23;;;6.10;80.20;;;;;;4852551;29;20089;-75
2022/01/13 05:25:05;;;;;;;20.92;10.25;;;6.10;80.20;;;;;;4862043;29;20082;-75
2022/01/13 05:27:31;;;;;;;22.05;9.70;;;6.10;80.20;;;;;;4849711;29;20045;-75
2022/01/13 05:29:58;;;;;;;21.73;9.43;;;6.10;80.20;;;;;;4863318;29;20061;-75
2022/01/13 05:32:24;;;;;;;20.40;9.50;;;6.10;80.20;;;;;;4862961;29;20089;-75
2022/01/13 05:34:50;;;;;;;27.10;10.20;;;6.10;80.30;;;;;;4863581;29;20132;-75
2022/01/13 05:37:15;;;;;;;25.60;10.27;;;6.00;80.20;;;;;;4861241;29;20045;-76
2022/01/13 05:39:41;;;;;;;21.30;9.75;;;6.10;80.20;;;;;;4846548;29;20049;-76
2022/01/13 05:42:07;;;;;;;22.17;10.68;;;6.10;80.30;;;;;;4863569;29;20049;-75
2022/01/13 05:44:39;;;;;;;23.35;10.73;;;6.00;80.20;;;;;;4862310;29;20481;-75
2022/01/13 05:47:06;;;;;;;21.70;10.68;;;6.00;80.20;;;;;;4859907;29;20045;-75
2022/01/13 05:49:31;;;;;;;25.23;10.90;;;6.00;80.30;;;;;;4861648;29;20053;-74
2022/01/13 05:51:57;;;;;;;29.92;11.48;;;6.00;80.30;;;;;;4861730;29;20053;-75
2022/01/13 05:54:23;;;;;;;22.63;10.52;;;6.10;80.40;;;;;;4847067;29;20045;-75
2022/01/13 05:56:48;;;;;;;22.70;10.77;;;6.10;80.40;;;;;;4861230;29;20053;-75
2022/01/13 05:59:14;;;;;;;31.88;11.25;;;6.10;80.40;;;;;;4862868;29;20056;-75
2022/01/13 06:01:40;;;;;;;30.13;12.50;;;6.10;80.40;;;;;;4860285;29;20045;-76
2022/01/13 06:04:05;;;;;;;28.10;12.23;;;6.10;80.40;;;;;;4830844;29;20049;-76
2022/01/13 06:06:31;;;;;;;24.27;10.68;;;6.10;80.30;;;;;;4857242;29;20088;-74
2022/01/13 06:08:56;;;;;;;25.88;11.68;;;6.10;80.40;;;;;;4846085;29;20406;-75
2022/01/13 06:11:23;;;;;;;26.15;10.98;;;6.10;80.30;;;;;;4873276;29;20059;-74
2022/01/13 06:13:49;;;;;;;30.05;12.80;;;6.10;80.40;;;;;;4844870;29;20049;-75
2022/01/13 06:16:16;;;;;;;24.90;12.70;;;6.10;80.40;;;;;;4862594;29;20097;-75
2022/01/13 06:18:43;;;;;;;27.20;12.50;;;6.10;80.40;;;;;;4857097;29;20081;-75
2022/01/13 06:21:08;;;;;;;25.92;12.48;;;6.10;80.40;;;;;;4862197;29;20079;-74
2022/01/13 06:23:34;;;;;;;29.52;11.25;;;6.00;80.40;;;;;;4862581;29;20053;-76
2022/01/13 06:26:02;;;;;;;23.42;10.30;;;6.20;80.50;;;;;;4873408;29;20056;-76
2022/01/13 06:28:27;;;;;;;30.63;11.25;;;6.10;80.40;;;;;;4861866;29;20057;-75
2022/01/13 06:30:53;;;;;;;26.75;11.60;;;6.10;80.40;;;;;;4862909;29;20049;-75
2022/01/13 06:33:19;;;;;;;28.73;11.23;;;6.10;80.30;;;;;;4862597;29;20393;-75
2022/01/13 06:35:46;;;;;;;30.83;11.77;;;6.00;80.20;;;;;;4841965;29;20413;-76
2022/01/13 06:38:12;;;;;;;26.27;11.52;;;6.10;80.30;;;;;;4862192;29;20466;-76
2022/01/13 06:40:37;;;;;;;23.30;9.88;;;6.00;80.30;;;;;;4862801;29;20088;-76
2022/01/13 06:43:03;;;;;;;25.58;10.15;;;6.00;80.20;;;;;;4845607;29;20053;-78
2022/01/13 06:45:29;;;;;;;25.20;10.65;;;6.00;80.20;;;;;;4862372;29;20048;-82
2022/01/13 06:47:54;;;;;;;29.02;10.20;;;6.00;80.20;;;;;;4862856;29;20086;-82
2022/01/13 06:50:20;;;;;;;34.67;10.13;;;6.00;80.30;;;;;;4844958;29;20053;-82
2022/01/13 06:52:47;;;;;;;21.27;9.98;;;6.00;80.30;;;;;;4845700;29;20053;-81
2022/01/13 06:55:13;;;;;;;27.17;10.30;;;6.00;80.30;;;;;;4845523;29;20132;-81
2022/01/13 06:57:39;;;;;;;36.35;11.43;;;6.00;80.40;;;;;;4861662;29;20053;-80
2022/01/13 07:00:05;;;;;;;24.80;10.38;;;6.00;80.40;;;;;;4845679;29;20053;-81
2022/01/13 07:02:32;;;;;;;29.08;10.30;;;6.00;80.40;;;;;;4861972;29;20072;-80
2022/01/13 07:04:58;;;;;;;25.75;10.57;;;6.00;80.50;;;;;;4862215;29;20490;-81
2022/01/13 07:07:25;;;;;;;27.38;10.65;;;6.00;80.50;;;;;;4862146;29;20170;-81
2022/01/13 07:09:50;;;;;;;23.15;10.65;;;6.00;80.50;;;;;;4861898;29;20045;-80
2022/01/13 07:12:16;;;;;;;22.95;10.43;;;6.00;80.60;;;;;;4862077;29;20446;-79
2022/01/13 07:14:42;;;;;;;27.17;12.48;;;6.20;80.70;;;;;;4844954;29;20049;-80
2022/01/13 07:17:07;;;;;;;28.10;11.70;;;6.00;80.60;;;;;;4843968;29;20132;-80
2022/01/13 07:19:33;;;;;;;25.77;11.85;;;6.00;80.60;;;;;;4843585;29;20049;-80
2022/01/13 07:21:59;;;;;;;23.98;11.18;;;6.30;80.90;;;;;;4859378;29;20097;-80
2022/01/13 07:24:24;;;;;;;25.08;11.55;;;6.00;80.70;;;;;;4861916;29;20458;-80
2022/01/13 07:26:51;;;;;;;23.45;11.80;;;5.90;80.70;;;;;;4861966;29;20099;-77
2022/01/13 07:29:16;;;;;;;29.83;12.20;;;6.00;80.80;;;;;;4845396;29;20144;-76
2022/01/13 07:31:42;;;;;;;27.42;10.98;;;6.00;80.80;;;;;;4861907;29;20121;-76
2022/01/13 07:34:08;;;;;;;23.48;11.88;;;6.00;80.80;;;;;;4861643;29;20505;-76
2022/01/13 07:36:34;;;;;;;28.67;11.45;;;6.00;80.80;;;;;;4861900;29;20053;-76
2022/01/13 07:39:00;;;;;;;29.85;12.38;;;6.00;80.80;;;;;;4861827;29;20485;-76
2022/01/13 07:41:26;;;;;;;29.55;12.05;;;6.00;80.80;;;;;;4862043;29;20049;-76
2022/01/13 07:43:55;;;;;;;27.73;12.13;;;6.00;80.90;;;;;;4844870;29;20059;-76
2022/01/13 07:46:23;;;;;;;27.83;12.25;;;6.00;80.90;;;;;;4861670;29;20049;-76
2022/01/13 07:48:49;;;;;;;23.67;10.43;;;6.00;80.90;;;;;;4844981;29;20081;-76
2022/01/13 07:51:15;;;;;;;31.85;11.50;;;6.00;80.90;;;;;;4844989;29;20049;-76
2022/01/13 07:53:42;;;;;;;24.60;10.38;;;6.00;80.90;;;;;;4861506;29;20072;-76
2022/01/13 07:56:07;;;;;;;23.42;10.85;;;6.00;80.80;;;;;;4844958;29;20136;-76
2022/01/13 07:58:35;;;;;;;24.33;11.45;;;6.00;80.90;;;;;;4860442;29;20197;-76
2022/01/13 08:01:01;;;;;;;28.00;12.95;;;6.00;80.90;;;;;;4844991;29;20060;-76
2022/01/13 08:03:27;;;;;;;28.80;12.35;;;6.00;80.90;;;;;;4861411;29;20128;-76
2022/01/13 08:05:52;;;;;;;27.02;12.25;;;6.10;80.90;;;;;;4861395;29;20502;-76
2022/01/13 08:08:18;;;;;;;28.35;14.18;;;6.20;80.90;;;;;;4861353;29;20102;-76
2022/01/13 08:10:43;;;;;;;26.67;11.90;;;6.10;80.90;;;;;;4861715;29;20038;-76
2022/01/13 08:13:09;;;;;;;25.75;11.77;;;6.10;80.90;;;;;;4861356;29;20134;-76
2022/01/13 08:15:36;;;;;;;30.63;12.52;;;6.10;80.90;;;;;;4863644;29;20170;-76
2022/01/13 08:20:47;;;;;;;29.58;13.27;;;6.10;80.90;;;;;;4848611;29;20109;-77
2022/01/13 08:23:12;;;;;;;32.22;14.55;;;6.10;80.90;;;;;;4865374;29;20053;-77
2022/01/13 08:25:38;;;;;;;27.92;13.07;;;6.10;80.90;;;;;;4879569;29;20045;-77
2022/01/13 08:28:05;;;;;;;28.65;12.52;;;6.10;80.90;;;;;;4848659;29;20049;-77
2022/01/13 08:30:31;;;;;;;35.70;13.73;;;6.10;80.90;;;;;;4848206;29;20513;-77
2022/01/13 08:32:57;;;;;;;30.27;14.07;;;6.20;81.00;;;;;;4848272;29;20502;-77
2022/01/13 08:35:23;;;;;;;32.55;13.43;;;6.10;80.90;;;;;;4864861;29;20093;-77
2022/01/13 08:37:49;;;;;;;30.98;13.30;;;6.20;81.00;;;;;;4864944;29;20042;-77
2022/01/13 08:40:15;;;;;;;30.77;11.95;;;6.20;81.00;;;;;;4879318;29;20051;-77
2022/01/13 08:42:41;;;;;;;29.27;12.40;;;6.20;81.00;;;;;;4864772;29;20045;-77
2022/01/13 08:45:10;;;;;;;31.33;12.65;;;6.20;81.00;;;;;;4878598;29;20069;-77
2022/01/13 08:47:35;;;;;;;28.15;13.20;;;6.20;80.90;;;;;;4864619;29;20555;-78
2022/01/13 08:50:02;;;;;;;27.23;11.88;;;6.20;81.00;;;;;;4864720;29;20151;-77
2022/01/13 08:52:28;;;;;;;32.80;13.65;;;6.20;81.00;;;;;;4864536;29;20105;-76
2022/01/13 08:54:55;;;;;;;30.98;12.70;;;6.20;81.00;;;;;;4847857;29;20054;-77
2022/01/13 08:57:22;;;;;;;33.65;12.57;;;6.30;81.10;;;;;;4847929;29;20485;-77
2022/01/13 08:59:48;;;;;;;29.83;12.13;;;6.20;81.40;;;;;;4864419;29;20095;-77
2022/01/13 09:02:14;;;;;;;29.60;12.68;;;6.30;81.00;;;;;;4864683;29;20444;-77
2022/01/13 09:04:40;;;;;;;31.23;13.05;;;6.30;81.00;;;;;;4847761;29;20084;-76
2022/01/13 09:07:06;;;;;;;38.00;13.60;;;6.30;81.10;;;;;;4864420;29;20162;-76
2022/01/13 09:09:31;;;;;;;36.20;13.70;;;6.30;81.10;;;;;;4864577;29;20447;-77
2022/01/13 09:11:57;;;;;;;31.08;12.57;;;6.30;81.00;;;;;;4847683;29;20049;-77
2022/01/13 09:14:26;;;;;;;28.17;12.60;;;6.30;81.00;;;;;;4864229;29;20052;-77
2022/01/13 09:16:53;;;;;;;26.33;11.63;;;6.30;81.00;;;;;;4864133;29;20490;-77
2022/01/13 09:19:19;;;;;;;30.80;13.18;;;6.30;81.00;;;;;;4847613;29;20549;-77
2022/01/13 09:21:47;;;;;;;31.73;14.10;;;6.30;81.00;;;;;;4863284;29;20053;-77
2022/01/13 09:24:18;;;;;;;28.45;11.50;;;6.40;81.10;;;;;;4864060;29;20045;-77
2022/01/13 09:26:44;;;;;;;38.88;14.35;;;6.40;81.10;;;;;;4864043;29;20049;-77
2022/01/13 09:29:11;;;;;;;31.73;12.35;;;6.30;81.00;;;;;;4863995;29;20049;-77
2022/01/13 09:31:39;;;;;;;31.42;13.07;;;6.40;81.00;;;;;;4846952;29;20053;-76
2022/01/13 09:34:07;;;;;;;26.73;12.25;;;6.40;81.00;;;;;;4863692;29;20067;-77
2022/01/13 09:36:33;;;;;;;32.10;13.35;;;6.40;81.10;;;;;;4847495;29;20046;-77
2022/01/13 09:39:02;;;;;;;30.23;13.02;;;6.40;81.10;;;;;;4847216;29;20045;-77
2022/01/13 09:41:30;;;;;;;28.88;12.68;;;6.40;81.10;;;;;;4862686;29;20053;-76
2022/01/13 09:43:58;;;;;;;38.10;14.20;;;6.40;81.10;;;;;;4863680;29;20106;-77
2022/01/13 09:46:26;;;;;;;34.00;13.70;;;6.40;81.10;;;;;;4863612;29;20085;-77
2022/01/13 09:48:53;;;;;;;40.80;15.85;;;6.40;81.00;;;;;;4847211;29;20049;-77
2022/01/13 09:51:18;;;;;;;35.63;14.73;;;6.40;81.10;;;;;;4846789;29;20489;-76
2022/01/13 09:53:44;;;;;;;40.50;15.43;;;6.50;81.10;;;;;;4862988;29;20050;-77
2022/01/13 09:56:10;;;;;;;32.28;13.68;;;6.50;81.10;;;;;;4863513;29;20120;-77
2022/01/13 09:58:36;;;;;;;33.75;14.40;;;6.50;81.20;;;;;;4847105;29;20075;-77
2022/01/13 10:01:02;;;;;;;35.95;15.00;;;6.50;81.20;;;;;;4846927;29;20497;-77
2022/01/13 10:03:28;;;;;;;37.38;14.88;;;6.50;81.20;;;;;;4863273;29;20057;-78
2022/01/13 10:06:07;;;;;;;41.47;15.48;;;6.50;81.20;;;;;;4846727;29;20049;-77
2022/01/13 10:08:48;;;;;;;37.83;14.60;;;6.50;81.30;;;;;;4846698;29;20130;-77
2022/01/13 10:11:41;;;;;;;30.45;14.13;;;6.60;81.40;;;;;;4863308;29;20057;-77
2022/01/13 10:14:17;;;;;;;42.60;16.90;;;6.60;81.40;;;;;;4862550;29;20049;-77
2022/01/13 10:16:52;;;;;;;42.70;16.30;;;6.60;81.30;;;;;;4846774;29;20089;-77
2022/01/13 10:19:36;;;;;;;35.35;14.80;;;6.60;81.30;;;;;;4863018;29;20493;-77
2022/01/13 10:22:05;;;;;;;34.80;14.15;;;6.60;81.40;;;;;;4862963;29;20052;-77
2022/01/13 10:24:34;;;;;;;36.83;14.10;;;6.60;81.30;;;;;;4846406;29;20117;-77
2022/01/13 10:27:04;;;;;;;34.53;14.65;;;6.60;81.40;;;;;;4846476;29;20500;-77
2022/01/13 10:29:42;;;;;;;33.63;14.48;;;6.80;81.50;;;;;;4862801;29;20050;-78
2022/01/13 10:32:10;;;;;;;36.67;15.57;;;6.70;81.50;;;;;;4846475;29;20101;-78
2022/01/13 10:34:38;;;;;;;43.13;17.00;;;6.70;81.50;;;;;;4846304;29;20053;-77
2022/01/13 10:37:14;;;;;;;43.67;16.10;;;6.70;81.50;;;;;;4861332;29;20076;-77
2022/01/13 10:39:51;;;;;;;38.63;15.52;;;6.70;81.60;;;;;;4845676;29;20054;-78
2022/01/13 10:45:25;;;;;;;38.20;15.10;;;6.70;81.50;;;;;;4846310;29;20136;-77
2022/01/13 10:48:04;;;;;;;35.95;14.90;;;6.70;81.50;;;;;;4846196;29;20060;-77
2022/01/13 10:50:42;;;;;;;35.60;14.65;;;6.80;81.70;;;;;;4845982;29;20052;-78
2022/01/13 10:53:18;;;;;;;42.03;15.40;;;6.80;81.60;;;;;;4862626;29;20049;-77
2022/01/13 10:55:55;;;;;;;36.63;14.68;;;6.80;81.60;;;;;;4846063;29;20442;-77
2022/01/13 10:58:31;;;;;;;39.53;16.90;;;6.80;81.60;;;;;;4862246;29;20050;-78
2022/01/13 11:00:57;;;;;;;39.30;15.63;;;6.80;81.60;;;;;;4862371;29;20049;-78
2022/01/13 11:03:25;;;;;;;41.65;16.80;;;6.90;81.60;;;;;;4861548;29;20405;-78
2022/01/13 11:05:57;;;;;;;35.22;15.80;;;6.90;81.70;;;;;;4862266;29;20049;-78
2022/01/13 11:08:42;;;;;;;47.70;17.05;;;6.90;81.60;;;;;;4862233;29;20054;-78
2022/01/13 11:11:24;;;;;;;39.88;17.40;;;6.90;81.70;;;;;;4862266;29;20386;-78
2022/01/13 11:14:10;;;;;;;45.65;18.73;;;6.90;81.70;;;;;;4862183;29;20061;-78
2022/01/13 11:16:37;;;;;;;41.65;16.73;;;6.90;81.70;;;;;;4845542;29;20049;-78
2022/01/13 11:19:05;;;;;;;38.67;17.48;;;6.90;81.70;;;;;;4862024;29;20089;-77
2022/01/13 11:21:31;;;;;;;45.10;19.00;;;7.00;81.70;;;;;;4845658;29;20097;-78
2022/01/13 11:23:58;;;;;;;38.03;16.92;;;7.00;81.70;;;;;;4845420;29;20061;-78
2022/01/13 11:26:29;;;;;;;44.03;19.10;;;7.00;81.70;;;;;;4862000;29;20095;-78
2022/01/13 11:28:57;;;;;;;35.58;16.08;;;7.00;81.80;;;;;;4845191;29;20136;-78
2022/01/13 11:31:23;;;;;;;51.17;19.23;;;7.00;81.80;;;;;;4845586;29;20057;-78
2022/01/13 11:33:49;;;;;;;39.13;18.42;;;7.00;81.80;;;;;;4845268;29;20061;-78
2022/01/13 11:36:16;;;;;;;45.63;19.52;;;7.10;81.80;;;;;;4861776;29;20550;-78
2022/01/13 11:39:06;;;;;;;42.35;17.75;;;7.00;81.80;;;;;;4862016;29;20084;-78
2022/01/13 11:41:31;;;;;;;37.65;16.52;;;7.10;81.90;;;;;;4845206;29;20049;-78
2022/01/13 11:44:16;;;;;;;36.72;17.55;;;7.10;81.90;;;;;;4861774;29;20155;-78
2022/01/13 11:46:46;;;;;;;39.67;17.67;;;7.10;81.90;;;;;;4861608;29;20053;-77
2022/01/13 11:49:20;;;;;;;39.20;17.98;;;7.10;81.80;;;;;;4860827;29;20490;-77
2022/01/13 11:52:00;;;;;;;40.35;17.80;;;7.10;81.80;;;;;;4846119;29;20458;-78
2022/01/13 11:54:28;;;;;;;40.83;17.63;;;7.10;81.80;;;;;;4862246;29;20402;-78
2022/01/13 11:57:10;;;;;;;42.92;18.13;;;7.10;81.80;;;;;;4861860;29;20489;-78
2022/01/13 11:59:36;;;;;;;41.20;17.25;;;7.20;81.90;;;;;;4861584;29;20042;-78
2022/01/13 12:02:27;;;;;;;48.95;21.00;;;7.20;81.80;;;;;;4845223;29;20045;-78
2022/01/13 12:05:17;;;;;;;38.03;18.20;;;7.20;81.80;;;;;;4861622;29;20413;-78
2022/01/13 12:07:48;;;;;;;50.05;19.73;;;7.20;81.80;;;;;;4844855;29;20045;-78
2022/01/13 12:10:26;;;;;;;43.70;19.33;;;7.20;81.70;;;;;;4845030;29;20053;-78
2022/01/13 12:12:52;;;;;;;53.38;21.05;;;7.20;81.80;;;;;;4844867;29;20136;-78
2022/01/13 12:15:26;;;;;;;44.25;19.80;;;7.20;81.70;;;;;;4844407;29;20489;-78
2022/01/13 12:17:58;;;;;;;51.75;21.80;;;7.30;81.80;;;;;;4844839;29;20091;-78
2022/01/13 12:20:56;;;;;;;57.25;23.15;;;7.20;81.70;;;;;;4844826;29;20056;-78
2022/01/13 12:23:43;;;;;;;46.90;20.63;;;7.30;81.70;;;;;;4861352;29;20081;-79
2022/01/13 12:26:33;;;;;;;52.88;22.90;;;7.30;81.80;;;;;;4861390;29;20049;-79
2022/01/13 12:29:23;;;;;;;47.95;22.20;;;7.30;81.80;;;;;;4861290;29;20477;-79
2022/01/13 12:31:50;;;;;;;50.10;23.45;;;7.30;81.80;;;;;;4861466;29;20046;-79
2022/01/13 12:34:28;;;;;;;50.63;23.38;;;7.30;81.70;;;;;;4844660;29;20057;-79
2022/01/13 12:37:00;;;;;;;58.97;23.00;;;7.30;81.80;;;;;;4861263;29;20053;-79
2022/01/13 12:39:27;;;;;;;45.63;23.98;;;7.40;81.80;;;;;;4845166;29;20053;-79
2022/01/13 12:42:01;;;;;;;53.15;25.48;;;7.40;81.70;;;;;;4845060;29;20132;-79
2022/01/13 12:47:13;;;;;;;48.60;25.45;;;7.40;81.80;;;;;;4844721;29;20114;-79
2022/01/13 12:49:39;;;;;;;51.13;24.67;;;7.50;81.80;;;;;;4861119;29;20118;-79
2022/01/13 12:52:06;;;;;;;48.75;23.45;;;7.40;81.70;;;;;;4861357;29;20041;-79
2022/01/13 12:54:32;;;;;;;41.83;25.13;;;7.40;81.70;;;;;;4844644;29;20496;-79
2022/01/13 12:57:05;;;;;;;41.47;24.23;;;7.40;81.60;;;;;;4844617;29;20049;-79
2022/01/13 12:59:32;;;;;;;46.20;24.55;;;7.40;81.70;;;;;;4844440;29;20477;-79
2022/01/13 13:01:59;;;;;;;42.17;24.42;;;7.40;81.60;;;;;;4847056;29;20490;-78
2022/01/13 13:04:25;;;;;;;48.60;25.67;;;7.50;81.60;;;;;;4864391;29;20190;-80
2022/01/13 13:06:52;;;;;;;42.33;25.20;;;7.50;81.50;;;;;;4864508;29;20046;-79
2022/01/13 13:09:21;;;;;;;43.80;24.63;;;7.50;81.50;;;;;;4864501;29;20049;-79
2022/01/13 13:11:50;;;;;;;45.88;25.52;;;7.50;81.50;;;;;;4847749;29;20049;-79